createdAt,value
2018-06-10T00:00:16.037Z,20.77
2018-06-10T00:02:44.283Z,18.47
2018-06-10T00:05:12.527Z,19.77
2018-06-10T00:07:40.754Z,19.63
2018-06-10T00:10:08.981Z,20.83
2018-06-10T00:12:37.191Z,20.60
2018-06-10T00:15:05.687Z,23.00
2018-06-10T00:17:33.890Z,22.17
2018-06-10T00:20:02.120Z,20.23
2018-06-10T00:22:30.336Z,19.53
2018-06-10T00:24:58.563Z,20.60
2018-06-10T00:27:26.788Z,19.13
2018-06-10T00:29:55.029Z,18.10
2018-06-10T00:32:23.286Z,18.63
2018-06-10T00:34:51.544Z,20.07
2018-06-10T00:37:19.742Z,19.77
2018-06-10T00:39:47.986Z,21.37
2018-06-10T00:42:16.228Z,21.53
2018-06-10T00:44:44.451Z,20.70
2018-06-10T00:47:12.681Z,27.00
2018-06-10T00:49:40.894Z,21.93
2018-06-10T00:52:09.117Z,22.03
2018-06-10T00:54:37.343Z,22.73
2018-06-10T00:57:05.583Z,22.70
2018-06-10T00:59:33.809Z,22.27
2018-06-10T01:02:02.144Z,22.73
2018-06-10T01:04:30.368Z,20.47
2018-06-10T01:06:58.595Z,20.87
2018-06-10T01:09:26.790Z,20.90
2018-06-10T01:11:54.988Z,21.63
2018-06-10T01:14:23.199Z,21.47
2018-06-10T01:16:51.399Z,21.73
2018-06-10T01:19:19.623Z,20.70
2018-06-10T01:21:47.836Z,22.67
2018-06-10T01:24:16.051Z,20.97
2018-06-10T01:26:50.256Z,23.93
2018-06-10T01:29:19.210Z,20.63
2018-06-10T01:31:47.437Z,20.97
2018-06-10T01:34:15.662Z,23.60
2018-06-10T01:36:43.862Z,21.93
2018-06-10T01:39:11.854Z,21.93
2018-06-10T01:41:40.060Z,23.27
2018-06-10T01:44:08.316Z,22.73
2018-06-10T01:46:36.566Z,21.13
2018-06-10T01:49:04.805Z,21.43
2018-06-10T01:51:32.829Z,21.90
2018-06-10T01:54:01.064Z,21.77
2018-06-10T01:56:29.273Z,22.57
2018-06-10T01:58:57.489Z,22.33
2018-06-10T02:01:25.766Z,21.43
2018-06-10T02:03:53.973Z,19.93
2018-06-10T02:06:22.196Z,20.03
2018-06-10T02:08:50.433Z,20.53
2018-06-10T02:11:18.664Z,21.30
2018-06-10T02:13:46.868Z,20.50
2018-06-10T02:16:15.110Z,20.77
2018-06-10T02:18:43.342Z,21.13
2018-06-10T02:21:11.576Z,20.93
2018-06-10T02:23:39.551Z,21.10
2018-06-10T02:26:07.763Z,24.30
2018-06-10T02:28:35.963Z,22.83
2018-06-10T02:31:04.189Z,23.53
2018-06-10T02:33:32.476Z,22.20
2018-06-10T02:36:00.712Z,21.97
2018-06-10T02:38:28.935Z,22.20
2018-06-10T02:40:57.183Z,21.60
2018-06-10T02:43:25.422Z,22.20
2018-06-10T02:45:53.424Z,21.50
2018-06-10T02:48:21.635Z,22.07
2018-06-10T02:50:49.851Z,21.37
2018-06-10T02:53:18.091Z,20.60
2018-06-10T02:55:46.316Z,20.37
2018-06-10T02:58:14.583Z,21.57
2018-06-10T03:00:42.798Z,20.00
2018-06-10T03:03:11.061Z,20.10
2018-06-10T03:05:39.267Z,20.30
2018-06-10T03:08:07.491Z,20.37
2018-06-10T03:10:35.713Z,20.90
2018-06-10T03:13:03.968Z,22.73
2018-06-10T03:15:32.182Z,23.53
2018-06-10T03:18:00.162Z,21.33
2018-06-10T03:20:28.445Z,20.87
2018-06-10T03:22:56.652Z,22.67
2018-06-10T03:25:24.884Z,20.97
2018-06-10T03:27:53.101Z,20.87
2018-06-10T03:30:21.337Z,21.13
2018-06-10T03:32:49.552Z,23.57
2018-06-10T03:35:17.792Z,23.40
2018-06-10T03:37:46.024Z,20.67
2018-06-10T03:40:14.262Z,21.57
2018-06-10T03:42:42.490Z,21.73
2018-06-10T03:45:10.732Z,22.43
2018-06-10T03:47:38.966Z,23.93
2018-06-10T03:50:07.190Z,23.07
2018-06-10T03:52:35.397Z,23.83
2018-06-10T03:55:03.447Z,27.50
2018-06-10T03:57:31.673Z,22.43
2018-06-10T03:59:59.871Z,24.17
2018-06-10T04:02:28.128Z,22.73
2018-06-10T04:04:56.336Z,22.27
2018-06-10T04:07:24.581Z,24.23
2018-06-10T04:09:52.800Z,24.53
2018-06-10T04:12:21.006Z,23.80
2018-06-10T04:14:49.252Z,22.30
2018-06-10T04:17:17.273Z,23.30
2018-06-10T04:19:45.495Z,24.97
2018-06-10T04:22:13.725Z,22.57
2018-06-10T04:24:41.940Z,24.13
2018-06-10T04:27:10.192Z,26.37
2018-06-10T04:29:38.448Z,25.00
2018-06-10T04:32:06.689Z,26.60
2018-06-10T04:34:34.897Z,25.83
2018-06-10T04:37:03.121Z,26.07
2018-06-10T04:39:31.098Z,23.00
2018-06-10T04:41:59.338Z,22.23
2018-06-10T04:44:27.548Z,23.53
2018-06-10T04:46:55.778Z,23.80
2018-06-10T04:49:24.021Z,22.83
2018-06-10T04:51:52.224Z,22.93
2018-06-10T04:54:20.447Z,24.80
2018-06-10T04:56:48.665Z,25.07
2018-06-10T04:59:16.908Z,22.97
2018-06-10T05:01:45.160Z,24.40
2018-06-10T05:47:53.535Z,19.87
2018-06-10T05:50:21.544Z,17.53
2018-06-10T05:52:49.760Z,19.20
2018-06-10T05:55:18.040Z,21.50
2018-06-10T05:57:46.265Z,21.80
2018-06-10T06:00:14.489Z,18.27
2018-06-10T06:02:42.761Z,18.37
2018-06-10T06:05:12.026Z,18.00
2018-06-10T06:07:40.256Z,18.90
2018-06-10T06:10:08.485Z,18.33
2018-06-10T06:12:36.738Z,23.40
2018-06-10T06:15:05.061Z,17.87
2018-06-10T06:17:33.059Z,20.30
2018-06-10T06:20:01.266Z,18.83
2018-06-10T06:22:29.505Z,18.67
2018-06-10T06:24:57.748Z,19.90
2018-06-10T06:27:26.025Z,19.03
2018-06-10T06:29:54.231Z,18.23
2018-06-10T06:32:22.672Z,18.00
2018-06-10T06:34:50.889Z,20.00
2018-06-10T06:37:19.147Z,18.77
2018-06-10T06:39:47.376Z,17.47
2018-06-10T06:42:15.609Z,14.57
2018-06-10T06:44:43.842Z,15.03
2018-06-10T06:47:12.081Z,13.13
2018-06-10T06:49:40.306Z,14.80
2018-06-10T06:52:08.528Z,13.70
2018-06-10T06:54:36.760Z,17.60
2018-06-10T06:57:05.044Z,13.93
2018-06-10T06:59:33.268Z,13.40
2018-06-10T07:02:01.504Z,12.60
2018-06-10T07:04:29.719Z,13.53
2018-06-10T07:06:57.925Z,13.43
2018-06-10T07:09:25.936Z,14.18
2018-06-10T07:11:54.244Z,14.78
2018-06-10T07:14:22.437Z,12.43
2018-06-10T07:16:50.445Z,13.10
2018-06-10T07:19:18.663Z,13.03
2018-06-10T07:21:46.891Z,12.07
2018-06-10T07:24:15.096Z,20.12
2018-06-10T07:26:43.336Z,14.90
2018-06-10T07:29:11.588Z,12.73
2018-06-10T07:31:39.865Z,11.00
2018-06-10T07:34:07.835Z,11.15
2018-06-10T07:36:36.082Z,13.30
2018-06-10T07:39:06.560Z,10.15
2018-06-10T07:41:34.938Z,10.50
2018-06-10T07:44:03.151Z,11.83
2018-06-10T07:46:31.403Z,8.68
2018-06-10T07:48:59.600Z,10.50
2018-06-10T07:51:27.814Z,7.95
2018-06-10T07:53:56.040Z,10.23
2018-06-10T07:56:24.292Z,9.60
2018-06-10T07:58:52.525Z,9.50
2018-06-10T08:01:20.736Z,10.63
2018-06-10T08:03:49.010Z,10.93
2018-06-10T08:06:17.257Z,11.08
2018-06-10T08:08:45.467Z,8.68
2018-06-10T08:11:13.693Z,9.30
2018-06-10T08:13:41.927Z,10.10
2018-06-10T08:16:10.135Z,11.48
2018-06-10T08:18:38.399Z,10.28
2018-06-10T08:21:06.615Z,9.43
2018-06-10T08:23:34.936Z,10.82
2018-06-10T08:26:03.137Z,12.98
2018-06-10T08:28:31.371Z,9.73
2018-06-10T08:30:59.594Z,9.35
2018-06-10T08:33:27.832Z,11.25
2018-06-10T08:35:56.052Z,9.85
2018-06-10T08:38:24.280Z,12.03
2018-06-10T08:40:52.508Z,10.98
2018-06-10T08:43:20.729Z,13.35
2018-06-10T08:45:48.935Z,11.33
2018-06-10T08:48:17.167Z,11.60
2018-06-10T08:50:45.374Z,11.22
2018-06-10T08:53:13.587Z,9.18
2018-06-10T08:55:41.828Z,12.47
2018-06-10T08:58:10.072Z,12.53
2018-06-10T09:00:38.287Z,11.88
2018-06-10T09:03:06.548Z,9.68
2018-06-10T09:05:34.768Z,14.18
2018-06-10T09:08:03.933Z,12.80
2018-06-10T09:10:32.164Z,11.83
2018-06-10T09:13:00.413Z,9.28
2018-06-10T09:15:28.717Z,11.68
2018-06-10T09:17:56.952Z,11.63
2018-06-10T09:20:25.212Z,11.85
2018-06-10T09:22:53.430Z,13.45
2018-06-10T09:25:21.656Z,13.13
2018-06-10T09:27:49.904Z,13.40
2018-06-10T09:30:18.150Z,11.12
2018-06-10T09:32:46.372Z,10.10
2018-06-10T09:35:14.392Z,12.10
2018-06-10T09:37:42.622Z,13.65
2018-06-10T09:40:10.866Z,15.63
2018-06-10T09:42:39.089Z,11.30
2018-06-10T09:45:07.312Z,11.60
2018-06-10T09:47:35.520Z,17.20
2018-06-10T09:50:03.815Z,13.03
2018-06-10T09:52:32.023Z,13.60
2018-06-10T09:55:00.316Z,14.47
2018-06-10T09:57:28.558Z,14.30
2018-06-10T09:59:56.802Z,10.53
2018-06-10T10:02:25.053Z,13.18
2018-06-10T10:04:53.074Z,12.37
2018-06-10T10:07:21.279Z,15.90
2018-06-10T10:09:49.520Z,13.80
2018-06-10T10:12:17.760Z,12.70
2018-06-10T10:14:46.058Z,14.40
2018-06-10T10:17:14.021Z,16.35
2018-06-10T10:19:42.235Z,11.80
2018-06-10T10:22:10.461Z,12.53
2018-06-10T10:24:38.696Z,16.15
2018-06-10T10:27:06.953Z,18.65
2018-06-10T10:29:35.204Z,13.70
2018-06-10T10:32:03.406Z,12.25
2018-06-10T10:34:31.643Z,14.47
2018-06-10T10:36:59.887Z,16.55
2018-06-10T10:39:27.872Z,14.80
2018-06-10T10:41:56.688Z,13.55
2018-06-10T10:44:24.920Z,13.35
2018-06-10T10:46:53.166Z,13.05
2018-06-10T10:49:21.383Z,12.50
2018-06-10T10:51:49.627Z,11.10
2018-06-10T10:54:17.838Z,11.90
2018-06-10T10:56:46.086Z,18.15
2018-06-10T10:59:14.294Z,13.43
2018-06-10T11:01:42.546Z,16.07
2018-06-10T11:04:10.532Z,11.35
2018-06-10T11:06:38.773Z,13.05
2018-06-10T11:09:07.716Z,13.70
2018-06-10T11:11:36.132Z,12.98
2018-06-10T11:14:04.352Z,13.38
2018-06-10T11:16:32.612Z,24.45
2018-06-10T11:19:00.876Z,17.62
2018-06-10T11:21:29.098Z,13.75
2018-06-10T11:23:57.328Z,14.13
2018-06-10T11:26:25.544Z,12.13
2018-06-10T11:28:53.742Z,12.47
2018-06-10T11:31:21.959Z,17.23
2018-06-10T11:33:50.180Z,18.20
2018-06-10T11:36:18.412Z,10.88
2018-06-10T11:38:46.656Z,9.50
2018-06-10T11:41:14.884Z,14.90
2018-06-10T11:43:43.089Z,13.68
2018-06-10T11:46:11.605Z,20.10
2018-06-10T11:48:39.812Z,12.07
2018-06-10T11:51:08.092Z,13.20
2018-06-10T11:53:36.336Z,12.45
2018-06-10T11:56:04.835Z,19.75
2018-06-10T11:58:33.073Z,13.53
2018-06-10T12:01:01.280Z,12.50
2018-06-10T12:03:29.538Z,15.48
2018-06-10T12:05:57.735Z,12.15
2018-06-10T12:08:25.976Z,16.55
2018-06-10T12:10:54.209Z,13.45
2018-06-10T12:13:22.437Z,14.68
2018-06-10T12:15:50.643Z,18.87
2018-06-10T12:18:18.867Z,15.53
2018-06-10T12:20:47.080Z,16.90
2018-06-10T12:23:15.316Z,12.10
2018-06-10T12:25:43.529Z,15.72
2018-06-10T12:28:11.780Z,13.83
2018-06-10T12:30:39.994Z,9.55
2018-06-10T12:33:08.229Z,17.32
2018-06-10T12:35:36.447Z,12.30
2018-06-10T12:38:04.855Z,10.88
2018-06-10T12:40:32.836Z,13.10
2018-06-10T12:43:01.099Z,10.63
2018-06-10T12:45:29.314Z,9.57
2018-06-10T12:47:57.576Z,13.13
2018-06-10T12:50:25.794Z,12.10
2018-06-10T12:52:54.070Z,16.60
2018-06-10T12:55:22.315Z,13.77
2018-06-10T12:57:50.540Z,13.33
2018-06-10T13:00:18.768Z,14.63
2018-06-10T13:02:47.039Z,12.60
2018-06-10T13:05:15.254Z,14.33
2018-06-10T13:07:43.512Z,14.00
2018-06-10T13:10:11.722Z,14.03
2018-06-10T13:12:39.951Z,13.90
2018-06-10T13:15:08.199Z,15.97
2018-06-10T13:17:36.417Z,17.73
2018-06-10T13:20:04.668Z,16.70
2018-06-10T13:22:32.954Z,15.33
2018-06-10T13:25:01.240Z,14.47
2018-06-10T13:27:29.454Z,14.73
2018-06-10T13:29:57.704Z,17.37
2018-06-10T13:32:25.921Z,16.60
2018-06-10T13:34:54.191Z,15.27
2018-06-10T13:37:22.396Z,16.30
2018-06-10T13:39:50.621Z,12.40
2018-06-10T13:42:18.656Z,14.03
2018-06-10T13:44:46.882Z,13.97
2018-06-10T13:47:15.090Z,16.30
2018-06-10T13:49:43.336Z,14.47
2018-06-10T13:52:11.543Z,15.10
2018-06-10T13:54:39.816Z,13.93
2018-06-10T13:57:08.043Z,17.23
2018-06-10T13:59:36.054Z,15.07
2018-06-10T14:02:04.295Z,13.47
2018-06-10T14:04:32.535Z,15.03
2018-06-10T14:07:00.743Z,12.67
2018-06-10T14:09:28.959Z,10.03
2018-06-10T14:11:57.947Z,11.63
2018-06-10T14:14:26.199Z,14.90
2018-06-10T14:16:54.468Z,15.40
2018-06-10T14:19:22.754Z,16.53
2018-06-10T14:21:51.009Z,17.20
2018-06-10T14:24:19.252Z,16.60
2018-06-10T14:26:47.493Z,17.53
2018-06-10T14:29:15.748Z,16.93
2018-06-10T14:31:44.008Z,21.10
2018-06-10T14:34:12.219Z,16.77
2018-06-10T14:36:40.456Z,25.23
2018-06-10T14:39:09.037Z,22.43
2018-06-10T14:41:37.290Z,27.83
2018-06-10T14:44:05.293Z,20.27
2018-06-10T14:46:33.557Z,22.57
2018-06-10T14:49:01.779Z,24.63
2018-06-10T14:51:30.006Z,23.77
2018-06-10T14:53:58.239Z,17.53
2018-06-10T14:56:26.504Z,18.87
2018-06-10T14:58:54.874Z,21.43
2018-06-10T15:01:23.084Z,19.50
2018-06-10T15:03:51.112Z,20.87
2018-06-10T15:06:19.340Z,21.03
2018-06-10T15:08:47.576Z,19.93
2018-06-10T15:11:15.796Z,19.07
2018-06-10T15:13:44.068Z,20.63
2018-06-10T15:16:12.041Z,20.60
2018-06-10T15:18:40.283Z,22.63
2018-06-10T15:21:08.483Z,17.67
2018-06-10T15:23:36.729Z,17.77
2018-06-10T15:26:05.007Z,20.00
2018-06-10T15:28:33.251Z,17.00
2018-06-10T15:31:01.461Z,20.20
2018-06-10T15:33:29.580Z,15.67
2018-06-10T15:35:59.635Z,12.57
2018-06-10T15:38:28.082Z,15.13
2018-06-10T15:40:56.401Z,13.00
2018-06-10T15:43:24.622Z,10.53
2018-06-10T15:45:52.852Z,15.00
2018-06-10T15:48:21.084Z,17.50
2018-06-10T15:50:49.331Z,15.83
2018-06-10T15:53:17.575Z,14.20
2018-06-10T15:55:45.845Z,13.63
2018-06-10T15:58:14.085Z,16.03
2018-06-10T16:00:42.315Z,9.13
2018-06-10T16:03:10.596Z,9.97
2018-06-10T16:05:38.839Z,9.23
2018-06-10T16:08:07.069Z,7.17
2018-06-10T16:10:35.369Z,6.93
2018-06-10T16:13:03.633Z,7.53
2018-06-10T16:15:31.876Z,9.33
2018-06-10T16:18:00.149Z,11.93
2018-06-10T16:20:28.392Z,8.57
2018-06-10T16:22:56.640Z,7.60
2018-06-10T16:25:24.880Z,9.10
2018-06-10T16:27:53.116Z,11.67
2018-06-10T16:30:21.364Z,9.33
2018-06-10T16:32:49.618Z,8.10
2018-06-10T16:35:17.839Z,7.33
2018-06-10T16:37:46.092Z,10.33
2018-06-10T16:40:14.297Z,7.10
2018-06-10T16:42:42.516Z,8.87
2018-06-10T16:45:10.768Z,11.07
2018-06-10T16:47:38.996Z,10.77
2018-06-10T16:50:07.211Z,9.27
2018-06-10T16:52:35.440Z,10.00
2018-06-10T16:55:03.648Z,9.87
2018-06-10T16:57:32.143Z,12.93
2018-06-10T17:00:00.348Z,10.80
2018-06-10T17:02:28.613Z,12.60
2018-06-10T17:04:56.803Z,10.77
2018-06-10T17:07:25.015Z,9.97
2018-06-10T17:09:53.233Z,10.73
2018-06-10T17:12:21.464Z,14.77
2018-06-10T17:14:49.675Z,10.77
2018-06-10T17:17:17.917Z,13.70
2018-06-10T17:19:46.135Z,14.40
2018-06-10T17:22:14.364Z,14.83
2018-06-10T17:24:42.564Z,11.43
2018-06-10T17:27:10.792Z,13.37
2018-06-10T17:29:39.015Z,15.33
2018-06-10T17:32:07.259Z,11.27
2018-06-10T17:34:35.496Z,13.33
2018-06-10T17:37:03.753Z,12.90
2018-06-10T17:39:31.976Z,12.43
2018-06-10T17:41:59.968Z,12.97
2018-06-10T17:44:28.180Z,11.87
2018-06-10T17:46:56.397Z,12.60
2018-06-10T17:49:24.390Z,14.27
2018-06-10T17:51:52.616Z,13.50
2018-06-10T17:54:20.868Z,13.07
2018-06-10T17:56:49.075Z,17.27
2018-06-10T17:59:17.305Z,14.67
2018-06-10T18:01:45.552Z,15.10
2018-06-10T18:04:13.807Z,22.13
2018-06-10T18:06:41.819Z,18.30
2018-06-10T18:09:10.048Z,18.93
2018-06-10T18:11:38.274Z,20.57
2018-06-10T18:14:06.557Z,17.50
2018-06-10T18:16:34.802Z,18.00
2018-06-10T18:19:03.097Z,18.73
2018-06-10T18:21:31.326Z,17.23
2018-06-10T18:23:59.598Z,17.50
2018-06-10T18:26:27.622Z,16.73
2018-06-10T18:28:55.864Z,19.93
2018-06-10T18:31:24.117Z,17.90
2018-06-10T18:33:52.136Z,16.87
2018-06-10T18:36:20.376Z,17.63
2018-06-10T18:38:48.621Z,19.00
2018-06-10T18:41:16.854Z,20.27
2018-06-10T18:43:45.064Z,19.33
2018-06-10T18:46:13.297Z,18.20
2018-06-10T18:48:41.572Z,18.13
2018-06-10T18:51:09.821Z,17.97
2018-06-10T18:53:38.282Z,19.60
2018-06-10T18:56:06.552Z,18.03
2018-06-10T18:58:34.817Z,20.03
2018-06-10T19:01:03.074Z,18.43
2018-06-10T19:03:31.319Z,18.53
2018-06-10T19:05:59.621Z,18.23
2018-06-10T19:08:27.833Z,18.87
2018-06-10T19:10:56.063Z,20.20
2018-06-10T19:13:24.299Z,18.97
2018-06-10T19:15:52.531Z,20.23
2018-06-10T19:18:20.779Z,20.53
2018-06-10T19:20:49.023Z,18.77
2018-06-10T19:23:17.305Z,20.23
2018-06-10T19:25:45.542Z,20.00
2018-06-10T19:28:13.794Z,20.10
2018-06-10T19:30:42.035Z,21.53
2018-06-10T19:33:10.291Z,19.73
2018-06-10T19:35:38.537Z,21.53
2018-06-10T19:38:07.178Z,20.77
2018-06-10T19:40:35.459Z,20.80
2018-06-10T19:43:03.737Z,20.37
2018-06-10T19:45:31.951Z,19.73
2018-06-10T19:48:00.229Z,19.30
2018-06-10T19:50:28.470Z,18.37
2018-06-10T19:52:56.695Z,16.87
2018-06-10T19:55:24.952Z,17.27
2018-06-10T19:57:53.181Z,17.57
2018-06-10T20:00:21.431Z,16.47
2018-06-10T20:02:49.810Z,16.90
2018-06-10T20:05:17.841Z,16.47
2018-06-10T20:07:46.060Z,17.93
2018-06-10T20:10:14.368Z,18.60
2018-06-10T20:12:42.673Z,17.37
2018-06-10T20:15:14.066Z,18.47
2018-06-10T20:17:43.632Z,15.83
2018-06-10T20:20:12.175Z,15.17
2018-06-10T20:22:40.444Z,14.93
2018-06-10T20:25:08.714Z,18.70
2018-06-10T20:27:36.948Z,14.47
2018-06-10T20:30:05.084Z,16.80
2018-06-10T20:32:33.004Z,14.87
2018-06-10T20:35:01.235Z,14.83
2018-06-10T20:37:29.480Z,14.40
2018-06-10T20:39:57.739Z,12.80
2018-06-10T20:42:25.977Z,13.73
2018-06-10T20:44:54.220Z,13.97
2018-06-10T20:47:22.447Z,18.53
2018-06-10T20:49:50.685Z,16.87
2018-06-10T20:52:18.932Z,15.77
2018-06-10T20:54:47.218Z,19.53
2018-06-10T20:57:22.945Z,16.00
2018-06-10T20:59:53.704Z,16.37
2018-06-10T21:02:22.292Z,16.87
2018-06-10T21:05:13.838Z,18.93
2018-06-10T21:07:42.057Z,16.43
2018-06-10T21:10:11.231Z,15.60
2018-06-10T21:12:39.440Z,18.37
2018-06-10T21:15:07.736Z,17.33
2018-06-10T21:17:35.955Z,17.83
2018-06-10T21:20:04.226Z,16.73
2018-06-10T21:22:32.451Z,18.00
2018-06-10T21:25:00.685Z,14.37
2018-06-10T21:27:28.922Z,15.43
2018-06-10T21:29:57.181Z,15.10
2018-06-10T21:32:25.416Z,16.30
2018-06-10T21:35:22.538Z,15.90
2018-06-10T21:37:52.405Z,15.57
2018-06-10T21:40:21.238Z,16.90
2018-06-10T21:42:49.715Z,14.57
2018-06-10T21:45:17.956Z,19.17
2018-06-10T21:48:13.032Z,17.87
2018-06-10T21:50:41.876Z,14.87
2018-06-10T21:53:10.126Z,19.63
2018-06-10T21:55:38.339Z,14.23
2018-06-10T21:58:06.343Z,15.93
2018-06-10T22:00:34.562Z,14.20
2018-06-10T22:03:02.812Z,13.57
2018-06-10T22:05:31.076Z,14.53
2018-06-10T22:07:59.325Z,13.70
2018-06-10T22:10:27.541Z,16.60
2018-06-10T22:12:55.776Z,14.87
2018-06-10T22:15:23.974Z,13.40
2018-06-10T22:17:52.216Z,11.83
2018-06-10T22:20:20.436Z,15.43
2018-06-10T22:22:48.668Z,16.37
2018-06-10T22:25:16.880Z,15.03
2018-06-10T22:27:45.116Z,12.27
2018-06-10T22:30:13.352Z,12.43
2018-06-10T22:32:41.940Z,12.07
2018-06-10T22:35:10.158Z,13.80
2018-06-10T22:37:38.383Z,11.83
2018-06-10T22:40:07.404Z,12.07
2018-06-10T22:42:35.658Z,12.30
2018-06-10T22:45:03.696Z,11.20
2018-06-10T22:47:31.932Z,13.40
2018-06-10T22:50:00.144Z,12.33
2018-06-10T22:52:28.383Z,13.30
2018-06-10T22:54:56.623Z,10.83
2018-06-10T22:57:24.620Z,11.57
2018-06-10T22:59:52.821Z,11.40
2018-06-10T23:02:21.121Z,10.93
2018-06-10T23:04:49.328Z,12.40
2018-06-10T23:07:17.565Z,11.53
2018-06-10T23:09:45.773Z,12.50
2018-06-10T23:12:14.027Z,12.27
2018-06-10T23:14:42.236Z,13.13
2018-06-10T23:17:10.456Z,13.93
2018-06-10T23:19:38.682Z,12.70
2018-06-10T23:22:06.927Z,13.67
2018-06-10T23:24:35.149Z,14.00
2018-06-10T23:27:03.364Z,12.93
2018-06-10T23:29:31.588Z,15.07
2018-06-10T23:31:59.802Z,13.93
2018-06-10T23:34:28.027Z,12.47
2018-06-10T23:36:56.247Z,13.80
2018-06-10T23:39:24.476Z,13.27
2018-06-10T23:41:52.671Z,13.13
2018-06-10T23:44:20.926Z,14.10
2018-06-10T23:46:49.133Z,13.10
2018-06-10T23:49:17.368Z,13.53
2018-06-10T23:51:45.772Z,12.50
2018-06-10T23:54:14.238Z,14.47
2018-06-10T23:56:42.478Z,12.03
2018-06-10T23:59:10.694Z,13.83
